sensor_id;sensor_type;location;lat;lon;timestamp;P1;durP1;ratioP1;P2;durP2;ratioP2
13051;SDS011;6592;47.484;9.726;2023-04-09T00:00:19;17.83;;;7.90;;
13051;SDS011;6592;47.484;9.726;2023-04-09T00:02:48;18.95;;;8.70;;
13051;SDS011;6592;47.484;9.726;2023-04-09T00:05:16;18.42;;;9.02;;
13051;SDS011;6592;47.484;9.726;2023-04-09T00:07:45;15.88;;;7.95;;
13051;SDS011;6592;47.484;9.726;2023-04-09T00:10:16;17.48;;;8.73;;
13051;SDS011;6592;47.484;9.726;2023-04-09T00:12:45;16.45;;;8.02;;
13051;SDS011;6592;47.484;9.726;2023-04-09T00:15:16;19.77;;;8.55;;
13051;SDS011;6592;47.484;9.726;2023-04-09T00:17:56;18.98;;;8.75;;
13051;SDS011;6592;47.484;9.726;2023-04-09T00:20:26;17.05;;;8.15;;
13051;SDS011;6592;47.484;9.726;2023-04-09T00:22:56;19.02;;;8.68;;
13051;SDS011;6592;47.484;9.726;2023-04-09T00:25:38;18.38;;;8.80;;
13051;SDS011;6592;47.484;9.726;2023-04-09T00:28:08;17.23;;;8.57;;
13051;SDS011;6592;47.484;9.726;2023-04-09T00:30:39;22.17;;;8.55;;
13051;SDS011;6592;47.484;9.726;2023-04-09T00:33:08;16.67;;;8.73;;
13051;SDS011;6592;47.484;9.726;2023-04-09T00:35:40;16.02;;;8.18;;
13051;SDS011;6592;47.484;9.726;2023-04-09T00:38:09;16.75;;;8.63;;
13051;SDS011;6592;47.484;9.726;2023-04-09T00:40:38;17.48;;;8.38;;
13051;SDS011;6592;47.484;9.726;2023-04-09T00:43:08;17.05;;;8.30;;
13051;SDS011;6592;47.484;9.726;2023-04-09T00:45:39;18.23;;;9.10;;
13051;SDS011;6592;47.484;9.726;2023-04-09T00:48:08;21.90;;;9.23;;
13051;SDS011;6592;47.484;9.726;2023-04-09T00:50:39;18.13;;;9.18;;
13051;SDS011;6592;47.484;9.726;2023-04-09T00:53:10;21.30;;;10.53;;
13051;SDS011;6592;47.484;9.726;2023-04-09T00:55:45;21.45;;;9.68;;
13051;SDS011;6592;47.484;9.726;2023-04-09T00:58:17;21.33;;;10.05;;
13051;SDS011;6592;47.484;9.726;2023-04-09T01:00:50;22.60;;;10.27;;
13051;SDS011;6592;47.484;9.726;2023-04-09T01:03:20;19.13;;;9.30;;
13051;SDS011;6592;47.484;9.726;2023-04-09T01:05:51;19.48;;;9.27;;
13051;SDS011;6592;47.484;9.726;2023-04-09T01:08:35;22.58;;;9.82;;
13051;SDS011;6592;47.484;9.726;2023-04-09T01:11:15;21.95;;;10.40;;
13051;SDS011;6592;47.484;9.726;2023-04-09T01:13:54;21.08;;;10.00;;
13051;SDS011;6592;47.484;9.726;2023-04-09T01:16:31;21.63;;;10.40;;
13051;SDS011;6592;47.484;9.726;2023-04-09T01:19:05;18.95;;;9.65;;
13051;SDS011;6592;47.484;9.726;2023-04-09T01:21:40;20.75;;;10.02;;
13051;SDS011;6592;47.484;9.726;2023-04-09T01:24:14;21.38;;;10.75;;
13051;SDS011;6592;47.484;9.726;2023-04-09T01:26:58;20.98;;;10.43;;
13051;SDS011;6592;47.484;9.726;2023-04-09T01:29:36;23.92;;;10.98;;
13051;SDS011;6592;47.484;9.726;2023-04-09T01:32:08;22.17;;;10.98;;
13051;SDS011;6592;47.484;9.726;2023-04-09T01:34:38;23.65;;;10.75;;
13051;SDS011;6592;47.484;9.726;2023-04-09T01:37:10;22.70;;;10.50;;
13051;SDS011;6592;47.484;9.726;2023-04-09T01:39:40;23.77;;;10.90;;
13051;SDS011;6592;47.484;9.726;2023-04-09T01:42:09;23.05;;;10.85;;
13051;SDS011;6592;47.484;9.726;2023-04-09T01:44:41;19.30;;;10.00;;
13051;SDS011;6592;47.484;9.726;2023-04-09T01:47:12;24.88;;;11.45;;
13051;SDS011;6592;47.484;9.726;2023-04-09T01:49:41;22.65;;;11.13;;
13051;SDS011;6592;47.484;9.726;2023-04-09T01:52:11;21.92;;;9.80;;
13051;SDS011;6592;47.484;9.726;2023-04-09T01:54:41;25.83;;;11.57;;
13051;SDS011;6592;47.484;9.726;2023-04-09T01:57:13;25.60;;;11.38;;
13051;SDS011;6592;47.484;9.726;2023-04-09T01:59:44;22.95;;;11.00;;
13051;SDS011;6592;47.484;9.726;2023-04-09T02:02:22;22.63;;;10.85;;
13051;SDS011;6592;47.484;9.726;2023-04-09T02:10:07;22.55;;;10.18;;
13051;SDS011;6592;47.484;9.726;2023-04-09T02:12:39;23.17;;;10.82;;
13051;SDS011;6592;47.484;9.726;2023-04-09T02:15:15;24.55;;;11.00;;
13051;SDS011;6592;47.484;9.726;2023-04-09T02:17:47;23.60;;;11.00;;
13051;SDS011;6592;47.484;9.726;2023-04-09T02:20:15;22.55;;;10.68;;
13051;SDS011;6592;47.484;9.726;2023-04-09T02:22:44;23.98;;;11.35;;
13051;SDS011;6592;47.484;9.726;2023-04-09T02:25:13;23.73;;;11.00;;
13051;SDS011;6592;47.484;9.726;2023-04-09T02:27:42;24.33;;;10.88;;
13051;SDS011;6592;47.484;9.726;2023-04-09T02:30:11;23.75;;;10.77;;
13051;SDS011;6592;47.484;9.726;2023-04-09T02:32:42;19.95;;;9.80;;
13051;SDS011;6592;47.484;9.726;2023-04-09T02:37:40;18.65;;;8.55;;
13051;SDS011;6592;47.484;9.726;2023-04-09T02:40:10;21.60;;;10.30;;
13051;SDS011;6592;47.484;9.726;2023-04-09T02:42:40;20.25;;;9.75;;
13051;SDS011;6592;47.484;9.726;2023-04-09T02:45:10;20.70;;;9.95;;
13051;SDS011;6592;47.484;9.726;2023-04-09T02:47:41;19.23;;;8.98;;
13051;SDS011;6592;47.484;9.726;2023-04-09T02:50:10;22.27;;;10.07;;
13051;SDS011;6592;47.484;9.726;2023-04-09T02:52:46;21.40;;;9.80;;
13051;SDS011;6592;47.484;9.726;2023-04-09T02:55:15;20.63;;;9.80;;
13051;SDS011;6592;47.484;9.726;2023-04-09T02:57:44;20.70;;;9.50;;
13051;SDS011;6592;47.484;9.726;2023-04-09T03:00:13;19.55;;;8.77;;
13051;SDS011;6592;47.484;9.726;2023-04-09T03:02:44;19.88;;;9.02;;
13051;SDS011;6592;47.484;9.726;2023-04-09T03:05:13;19.70;;;9.10;;
13051;SDS011;6592;47.484;9.726;2023-04-09T03:07:43;21.83;;;9.30;;
13051;SDS011;6592;47.484;9.726;2023-04-09T03:10:12;19.70;;;9.23;;
13051;SDS011;6592;47.484;9.726;2023-04-09T03:12:41;19.55;;;9.63;;
13051;SDS011;6592;47.484;9.726;2023-04-09T03:15:14;24.95;;;9.98;;
13051;SDS011;6592;47.484;9.726;2023-04-09T03:17:45;20.92;;;9.50;;
13051;SDS011;6592;47.484;9.726;2023-04-09T03:20:14;21.00;;;9.43;;
13051;SDS011;6592;47.484;9.726;2023-04-09T03:22:43;20.60;;;9.27;;
13051;SDS011;6592;47.484;9.726;2023-04-09T03:25:12;20.13;;;9.82;;
13051;SDS011;6592;47.484;9.726;2023-04-09T03:27:43;19.80;;;9.43;;
13051;SDS011;6592;47.484;9.726;2023-04-09T03:30:16;20.88;;;9.55;;
13051;SDS011;6592;47.484;9.726;2023-04-09T03:32:49;20.98;;;9.40;;
13051;SDS011;6592;47.484;9.726;2023-04-09T03:35:20;19.23;;;9.05;;
13051;SDS011;6592;47.484;9.726;2023-04-09T03:37:49;21.10;;;9.32;;
13051;SDS011;6592;47.484;9.726;2023-04-09T03:40:20;20.45;;;8.95;;
13051;SDS011;6592;47.484;9.726;2023-04-09T03:42:48;20.70;;;9.00;;
13051;SDS011;6592;47.484;9.726;2023-04-09T03:45:18;19.73;;;9.13;;
13051;SDS011;6592;47.484;9.726;2023-04-09T03:47:52;20.15;;;8.63;;
13051;SDS011;6592;47.484;9.726;2023-04-09T03:50:23;19.38;;;9.07;;
13051;SDS011;6592;47.484;9.726;2023-04-09T03:52:52;18.80;;;8.05;;
13051;SDS011;6592;47.484;9.726;2023-04-09T03:55:22;20.05;;;8.70;;
13051;SDS011;6592;47.484;9.726;2023-04-09T03:57:54;19.05;;;9.48;;
13051;SDS011;6592;47.484;9.726;2023-04-09T04:00:23;21.77;;;9.35;;
13051;SDS011;6592;47.484;9.726;2023-04-09T04:02:55;20.40;;;8.90;;
13051;SDS011;6592;47.484;9.726;2023-04-09T04:05:27;20.45;;;8.98;;
13051;SDS011;6592;47.484;9.726;2023-04-09T04:07:56;19.73;;;9.35;;
13051;SDS011;6592;47.484;9.726;2023-04-09T04:10:35;20.98;;;9.00;;
13051;SDS011;6592;47.484;9.726;2023-04-09T04:13:05;19.00;;;8.43;;
13051;SDS011;6592;47.484;9.726;2023-04-09T04:15:37;18.67;;;8.80;;
13051;SDS011;6592;47.484;9.726;2023-04-09T04:18:12;19.55;;;8.88;;
13051;SDS011;6592;47.484;9.726;2023-04-09T04:20:40;18.45;;;8.60;;
13051;SDS011;6592;47.484;9.726;2023-04-09T04:23:09;18.35;;;8.48;;
13051;SDS011;6592;47.484;9.726;2023-04-09T04:25:39;17.73;;;8.65;;
13051;SDS011;6592;47.484;9.726;2023-04-09T04:28:11;17.10;;;7.97;;
13051;SDS011;6592;47.484;9.726;2023-04-09T04:30:40;17.02;;;8.40;;
13051;SDS011;6592;47.484;9.726;2023-04-09T04:33:08;19.40;;;9.00;;
13051;SDS011;6592;47.484;9.726;2023-04-09T04:35:38;16.90;;;8.13;;
13051;SDS011;6592;47.484;9.726;2023-04-09T04:38:06;18.27;;;8.40;;
13051;SDS011;6592;47.484;9.726;2023-04-09T04:40:35;18.73;;;8.63;;
13051;SDS011;6592;47.484;9.726;2023-04-09T04:43:03;18.45;;;8.30;;
13051;SDS011;6592;47.484;9.726;2023-04-09T04:45:31;19.80;;;8.23;;
13051;SDS011;6592;47.484;9.726;2023-04-09T04:47:59;19.98;;;9.35;;
13051;SDS011;6592;47.484;9.726;2023-04-09T04:50:29;20.08;;;8.65;;
13051;SDS011;6592;47.484;9.726;2023-04-09T04:52:58;16.52;;;7.88;;
13051;SDS011;6592;47.484;9.726;2023-04-09T04:55:26;17.45;;;7.80;;
13051;SDS011;6592;47.484;9.726;2023-04-09T04:57:54;17.35;;;8.30;;
13051;SDS011;6592;47.484;9.726;2023-04-09T05:00:22;15.60;;;7.45;;
13051;SDS011;6592;47.484;9.726;2023-04-09T05:02:51;16.58;;;8.00;;
13051;SDS011;6592;47.484;9.726;2023-04-09T05:05:19;17.58;;;7.95;;
13051;SDS011;6592;47.484;9.726;2023-04-09T05:07:49;16.25;;;7.78;;
13051;SDS011;6592;47.484;9.726;2023-04-09T05:10:17;16.75;;;7.85;;
13051;SDS011;6592;47.484;9.726;2023-04-09T05:12:46;18.65;;;8.23;;
13051;SDS011;6592;47.484;9.726;2023-04-09T05:15:14;18.58;;;8.05;;
13051;SDS011;6592;47.484;9.726;2023-04-09T05:17:42;16.52;;;7.10;;
13051;SDS011;6592;47.484;9.726;2023-04-09T05:20:11;15.02;;;7.10;;
13051;SDS011;6592;47.484;9.726;2023-04-09T05:22:39;16.13;;;8.25;;
13051;SDS011;6592;47.484;9.726;2023-04-09T05:25:09;18.63;;;8.45;;
13051;SDS011;6592;47.484;9.726;2023-04-09T05:27:37;18.10;;;8.45;;
13051;SDS011;6592;47.484;9.726;2023-04-09T05:30:06;17.60;;;7.95;;
13051;SDS011;6592;47.484;9.726;2023-04-09T05:32:35;16.40;;;7.53;;
13051;SDS011;6592;47.484;9.726;2023-04-09T05:35:04;14.55;;;6.75;;
13051;SDS011;6592;47.484;9.726;2023-04-09T05:37:32;16.10;;;7.60;;
13051;SDS011;6592;47.484;9.726;2023-04-09T05:40:01;16.83;;;7.57;;
13051;SDS011;6592;47.484;9.726;2023-04-09T05:42:30;16.42;;;7.65;;
13051;SDS011;6592;47.484;9.726;2023-04-09T05:44:59;16.75;;;7.40;;
13051;SDS011;6592;47.484;9.726;2023-04-09T05:47:27;14.93;;;7.40;;
13051;SDS011;6592;47.484;9.726;2023-04-09T05:49:55;17.25;;;8.00;;
13051;SDS011;6592;47.484;9.726;2023-04-09T05:52:23;15.35;;;7.85;;
13051;SDS011;6592;47.484;9.726;2023-04-09T05:54:52;17.30;;;7.50;;
13051;SDS011;6592;47.484;9.726;2023-04-09T05:57:20;19.05;;;8.45;;
13051;SDS011;6592;47.484;9.726;2023-04-09T05:59:50;14.23;;;7.30;;
13051;SDS011;6592;47.484;9.726;2023-04-09T06:02:18;15.00;;;7.75;;
13051;SDS011;6592;47.484;9.726;2023-04-09T06:04:46;16.30;;;8.00;;
13051;SDS011;6592;47.484;9.726;2023-04-09T06:07:15;16.83;;;8.23;;
13051;SDS011;6592;47.484;9.726;2023-04-09T06:09:43;19.05;;;7.78;;
13051;SDS011;6592;47.484;9.726;2023-04-09T06:12:12;15.65;;;7.60;;
13051;SDS011;6592;47.484;9.726;2023-04-09T06:14:41;12.43;;;6.70;;
13051;SDS011;6592;47.484;9.726;2023-04-09T06:17:10;14.38;;;6.55;;
13051;SDS011;6592;47.484;9.726;2023-04-09T06:19:39;11.77;;;6.00;;
13051;SDS011;6592;47.484;9.726;2023-04-09T06:22:08;11.75;;;6.43;;
13051;SDS011;6592;47.484;9.726;2023-04-09T06:24:36;12.02;;;6.20;;
13051;SDS011;6592;47.484;9.726;2023-04-09T06:27:05;12.18;;;6.53;;
13051;SDS011;6592;47.484;9.726;2023-04-09T06:29:33;13.48;;;6.65;;
13051;SDS011;6592;47.484;9.726;2023-04-09T06:32:02;11.23;;;6.28;;
13051;SDS011;6592;47.484;9.726;2023-04-09T06:34:32;11.00;;;6.10;;
13051;SDS011;6592;47.484;9.726;2023-04-09T06:37:00;11.13;;;6.10;;
13051;SDS011;6592;47.484;9.726;2023-04-09T06:39:29;12.65;;;6.50;;
13051;SDS011;6592;47.484;9.726;2023-04-09T06:41:58;12.27;;;6.20;;
13051;SDS011;6592;47.484;9.726;2023-04-09T06:44:26;11.85;;;6.13;;
13051;SDS011;6592;47.484;9.726;2023-04-09T06:46:54;12.70;;;6.97;;
13051;SDS011;6592;47.484;9.726;2023-04-09T06:49:23;11.43;;;6.47;;
13051;SDS011;6592;47.484;9.726;2023-04-09T06:51:52;10.68;;;6.60;;
13051;SDS011;6592;47.484;9.726;2023-04-09T06:54:21;14.05;;;6.43;;
13051;SDS011;6592;47.484;9.726;2023-04-09T06:56:49;9.93;;;5.72;;
13051;SDS011;6592;47.484;9.726;2023-04-09T06:59:18;9.75;;;5.80;;
13051;SDS011;6592;47.484;9.726;2023-04-09T07:01:46;11.48;;;6.20;;
13051;SDS011;6592;47.484;9.726;2023-04-09T07:04:15;10.75;;;6.18;;
13051;SDS011;6592;47.484;9.726;2023-04-09T07:06:44;9.15;;;5.78;;
13051;SDS011;6592;47.484;9.726;2023-04-09T07:09:13;11.25;;;6.20;;
13051;SDS011;6592;47.484;9.726;2023-04-09T07:11:42;10.67;;;5.70;;
13051;SDS011;6592;47.484;9.726;2023-04-09T07:14:11;11.35;;;6.47;;
13051;SDS011;6592;47.484;9.726;2023-04-09T07:16:39;11.35;;;6.53;;
13051;SDS011;6592;47.484;9.726;2023-04-09T07:19:08;12.15;;;6.78;;
13051;SDS011;6592;47.484;9.726;2023-04-09T07:21:36;10.20;;;5.75;;
13051;SDS011;6592;47.484;9.726;2023-04-09T07:24:05;11.65;;;6.57;;
13051;SDS011;6592;47.484;9.726;2023-04-09T07:26:34;10.90;;;6.80;;
13051;SDS011;6592;47.484;9.726;2023-04-09T07:29:03;18.05;;;9.25;;
13051;SDS011;6592;47.484;9.726;2023-04-09T07:31:31;15.85;;;9.15;;
13051;SDS011;6592;47.484;9.726;2023-04-09T07:34:01;14.93;;;9.10;;
13051;SDS011;6592;47.484;9.726;2023-04-09T07:36:29;13.90;;;8.90;;
13051;SDS011;6592;47.484;9.726;2023-04-09T07:38:58;14.63;;;9.23;;
13051;SDS011;6592;47.484;9.726;2023-04-09T07:41:26;15.23;;;9.20;;
13051;SDS011;6592;47.484;9.726;2023-04-09T07:43:56;15.57;;;9.38;;
13051;SDS011;6592;47.484;9.726;2023-04-09T07:46:24;15.00;;;8.90;;
13051;SDS011;6592;47.484;9.726;2023-04-09T07:48:52;16.02;;;9.07;;
13051;SDS011;6592;47.484;9.726;2023-04-09T07:51:21;13.68;;;8.50;;
13051;SDS011;6592;47.484;9.726;2023-04-09T07:53:49;14.45;;;8.48;;
13051;SDS011;6592;47.484;9.726;2023-04-09T07:56:17;14.00;;;8.55;;
13051;SDS011;6592;47.484;9.726;2023-04-09T07:58:46;13.63;;;8.38;;
13051;SDS011;6592;47.484;9.726;2023-04-09T08:01:16;13.95;;;8.48;;
13051;SDS011;6592;47.484;9.726;2023-04-09T08:03:46;14.45;;;8.63;;
13051;SDS011;6592;47.484;9.726;2023-04-09T08:06:15;15.10;;;8.98;;
13051;SDS011;6592;47.484;9.726;2023-04-09T08:08:43;14.38;;;8.93;;
13051;SDS011;6592;47.484;9.726;2023-04-09T08:11:12;12.07;;;8.07;;
13051;SDS011;6592;47.484;9.726;2023-04-09T08:13:40;13.75;;;8.43;;
13051;SDS011;6592;47.484;9.726;2023-04-09T08:16:08;15.32;;;8.48;;
13051;SDS011;6592;47.484;9.726;2023-04-09T08:18:38;13.43;;;8.32;;
13051;SDS011;6592;47.484;9.726;2023-04-09T08:21:06;15.35;;;9.52;;
13051;SDS011;6592;47.484;9.726;2023-04-09T08:23:34;15.00;;;9.00;;
13051;SDS011;6592;47.484;9.726;2023-04-09T08:26:03;13.27;;;8.45;;
13051;SDS011;6592;47.484;9.726;2023-04-09T08:28:31;14.05;;;8.52;;
13051;SDS011;6592;47.484;9.726;2023-04-09T08:30:59;13.15;;;8.35;;
13051;SDS011;6592;47.484;9.726;2023-04-09T08:33:28;13.52;;;9.02;;
13051;SDS011;6592;47.484;9.726;2023-04-09T08:35:57;12.93;;;8.73;;
13051;SDS011;6592;47.484;9.726;2023-04-09T08:38:28;13.00;;;8.63;;
13051;SDS011;6592;47.484;9.726;2023-04-09T08:40:57;12.45;;;8.05;;
13051;SDS011;6592;47.484;9.726;2023-04-09T08:43:25;11.95;;;8.07;;
13051;SDS011;6592;47.484;9.726;2023-04-09T08:46:15;12.80;;;7.88;;
13051;SDS011;6592;47.484;9.726;2023-04-09T08:48:44;12.57;;;7.90;;
13051;SDS011;6592;47.484;9.726;2023-04-09T08:51:14;11.98;;;8.10;;
13051;SDS011;6592;47.484;9.726;2023-04-09T08:53:43;11.85;;;8.15;;
13051;SDS011;6592;47.484;9.726;2023-04-09T08:56:13;11.90;;;7.20;;
13051;SDS011;6592;47.484;9.726;2023-04-09T08:58:41;10.63;;;7.57;;
13051;SDS011;6592;47.484;9.726;2023-04-09T09:01:17;10.57;;;7.32;;
13051;SDS011;6592;47.484;9.726;2023-04-09T09:03:52;9.82;;;7.28;;
13051;SDS011;6592;47.484;9.726;2023-04-09T09:06:24;11.15;;;7.70;;
13051;SDS011;6592;47.484;9.726;2023-04-09T09:09:04;10.65;;;7.53;;
13051;SDS011;6592;47.484;9.726;2023-04-09T09:11:33;10.07;;;6.93;;
13051;SDS011;6592;47.484;9.726;2023-04-09T09:14:04;10.13;;;7.60;;
13051;SDS011;6592;47.484;9.726;2023-04-09T09:16:33;9.75;;;6.90;;
13051;SDS011;6592;47.484;9.726;2023-04-09T09:19:05;10.98;;;7.65;;
13051;SDS011;6592;47.484;9.726;2023-04-09T09:21:35;10.70;;;7.18;;
13051;SDS011;6592;47.484;9.726;2023-04-09T09:24:15;10.32;;;7.00;;
13051;SDS011;6592;47.484;9.726;2023-04-09T09:26:44;10.23;;;7.03;;
13051;SDS011;6592;47.484;9.726;2023-04-09T09:29:12;9.05;;;6.40;;
13051;SDS011;6592;47.484;9.726;2023-04-09T09:31:47;8.93;;;6.45;;
13051;SDS011;6592;47.484;9.726;2023-04-09T09:34:16;11.75;;;8.25;;
13051;SDS011;6592;47.484;9.726;2023-04-09T09:36:46;10.07;;;7.18;;
13051;SDS011;6592;47.484;9.726;2023-04-09T09:39:15;10.75;;;7.32;;
13051;SDS011;6592;47.484;9.726;2023-04-09T09:41:44;10.85;;;7.25;;
13051;SDS011;6592;47.484;9.726;2023-04-09T09:44:28;11.88;;;7.38;;
13051;SDS011;6592;47.484;9.726;2023-04-09T09:46:58;10.68;;;7.75;;
13051;SDS011;6592;47.484;9.726;2023-04-09T09:49:29;11.68;;;7.30;;
13051;SDS011;6592;47.484;9.726;2023-04-09T09:51:59;11.90;;;8.07;;
13051;SDS011;6592;47.484;9.726;2023-04-09T09:57:01;9.55;;;6.82;;
13051;SDS011;6592;47.484;9.726;2023-04-09T09:59:33;11.68;;;8.15;;
13051;SDS011;6592;47.484;9.726;2023-04-09T10:04:33;12.00;;;8.40;;
13051;SDS011;6592;47.484;9.726;2023-04-09T10:07:04;11.38;;;7.97;;
13051;SDS011;6592;47.484;9.726;2023-04-09T10:09:33;9.82;;;7.57;;
13051;SDS011;6592;47.484;9.726;2023-04-09T10:12:04;11.70;;;8.32;;
13051;SDS011;6592;47.484;9.726;2023-04-09T10:14:36;11.63;;;8.18;;
13051;SDS011;6592;47.484;9.726;2023-04-09T10:17:06;11.65;;;8.90;;
13051;SDS011;6592;47.484;9.726;2023-04-09T10:19:36;10.48;;;7.90;;
13051;SDS011;6592;47.484;9.726;2023-04-09T10:22:09;10.38;;;7.47;;
13051;SDS011;6592;47.484;9.726;2023-04-09T10:24:39;11.15;;;7.78;;
13051;SDS011;6592;47.484;9.726;2023-04-09T10:27:08;10.52;;;7.43;;
13051;SDS011;6592;47.484;9.726;2023-04-09T10:29:41;10.50;;;7.75;;
13051;SDS011;6592;47.484;9.726;2023-04-09T10:32:11;10.07;;;7.40;;
13051;SDS011;6592;47.484;9.726;2023-04-09T10:34:42;10.70;;;7.57;;
13051;SDS011;6592;47.484;9.726;2023-04-09T10:37:14;10.52;;;7.05;;
13051;SDS011;6592;47.484;9.726;2023-04-09T10:39:47;10.98;;;7.63;;
13051;SDS011;6592;47.484;9.726;2023-04-09T10:42:17;10.35;;;7.50;;
13051;SDS011;6592;47.484;9.726;2023-04-09T10:44:50;10.98;;;7.30;;
13051;SDS011;6592;47.484;9.726;2023-04-09T10:47:31;10.30;;;6.95;;
13051;SDS011;6592;47.484;9.726;2023-04-09T10:50:14;9.82;;;6.72;;
13051;SDS011;6592;47.484;9.726;2023-04-09T10:52:44;10.25;;;7.10;;
13051;SDS011;6592;47.484;9.726;2023-04-09T10:55:29;10.48;;;7.63;;
13051;SDS011;6592;47.484;9.726;2023-04-09T10:58:01;10.25;;;7.60;;
13051;SDS011;6592;47.484;9.726;2023-04-09T11:00:31;9.02;;;6.70;;
13051;SDS011;6592;47.484;9.726;2023-04-09T11:03:05;9.77;;;6.97;;
13051;SDS011;6592;47.484;9.726;2023-04-09T11:05:47;10.52;;;7.57;;
13051;SDS011;6592;47.484;9.726;2023-04-09T11:08:19;9.90;;;7.30;;
13051;SDS011;6592;47.484;9.726;2023-04-09T11:10:48;10.20;;;7.07;;
13051;SDS011;6592;47.484;9.726;2023-04-09T11:13:19;9.57;;;6.93;;
13051;SDS011;6592;47.484;9.726;2023-04-09T11:15:48;8.68;;;6.65;;
13051;SDS011;6592;47.484;9.726;2023-04-09T11:18:18;9.75;;;7.00;;
13051;SDS011;6592;47.484;9.726;2023-04-09T11:20:47;9.93;;;7.53;;
13051;SDS011;6592;47.484;9.726;2023-04-09T11:23:16;9.18;;;7.03;;
13051;SDS011;6592;47.484;9.726;2023-04-09T11:25:49;10.07;;;7.40;;
13051;SDS011;6592;47.484;9.726;2023-04-09T11:28:18;10.35;;;8.07;;
13051;SDS011;6592;47.484;9.726;2023-04-09T11:30:49;11.18;;;8.05;;
13051;SDS011;6592;47.484;9.726;2023-04-09T11:33:17;10.30;;;7.55;;
13051;SDS011;6592;47.484;9.726;2023-04-09T11:35:46;9.50;;;7.55;;
13051;SDS011;6592;47.484;9.726;2023-04-09T11:38:15;10.13;;;7.80;;
13051;SDS011;6592;47.484;9.726;2023-04-09T11:40:43;11.35;;;7.63;;
13051;SDS011;6592;47.484;9.726;2023-04-09T11:43:16;10.27;;;7.28;;
13051;SDS011;6592;47.484;9.726;2023-04-09T11:45:46;10.43;;;7.07;;
13051;SDS011;6592;47.484;9.726;2023-04-09T11:48:15;8.68;;;6.53;;
13051;SDS011;6592;47.484;9.726;2023-04-09T11:50:47;9.52;;;6.65;;
13051;SDS011;6592;47.484;9.726;2023-04-09T11:53:19;8.95;;;6.50;;
13051;SDS011;6592;47.484;9.726;2023-04-09T11:55:50;9.15;;;6.85;;
13051;SDS011;6592;47.484;9.726;2023-04-09T11:58:22;9.70;;;7.35;;
13051;SDS011;6592;47.484;9.726;2023-04-09T12:00:52;8.75;;;6.55;;
13051;SDS011;6592;47.484;9.726;2023-04-09T12:03:26;8.60;;;6.40;;
13051;SDS011;6592;47.484;9.726;2023-04-09T12:05:58;9.02;;;6.65;;
13051;SDS011;6592;47.484;9.726;2023-04-09T12:11:06;8.43;;;6.18;;
13051;SDS011;6592;47.484;9.726;2023-04-09T12:13:37;8.88;;;6.50;;
13051;SDS011;6592;47.484;9.726;2023-04-09T12:16:08;7.68;;;5.70;;
13051;SDS011;6592;47.484;9.726;2023-04-09T12:18:37;9.57;;;6.05;;
13051;SDS011;6592;47.484;9.726;2023-04-09T12:21:06;8.25;;;5.75;;
13051;SDS011;6592;47.484;9.726;2023-04-09T12:23:35;7.72;;;5.53;;
13051;SDS011;6592;47.484;9.726;2023-04-09T12:26:03;8.45;;;5.60;;
13051;SDS011;6592;47.484;9.726;2023-04-09T12:28:31;7.32;;;5.25;;
13051;SDS011;6592;47.484;9.726;2023-04-09T12:31:01;8.10;;;5.70;;
13051;SDS011;6592;47.484;9.726;2023-04-09T12:33:29;8.60;;;5.78;;
13051;SDS011;6592;47.484;9.726;2023-04-09T12:35:59;7.95;;;5.00;;
13051;SDS011;6592;47.484;9.726;2023-04-09T12:38:27;6.93;;;5.15;;
13051;SDS011;6592;47.484;9.726;2023-04-09T12:40:56;6.75;;;5.30;;
13051;SDS011;6592;47.484;9.726;2023-04-09T12:43:25;9.05;;;5.80;;
13051;SDS011;6592;47.484;9.726;2023-04-09T12:45:53;7.20;;;5.68;;
13051;SDS011;6592;47.484;9.726;2023-04-09T12:48:23;6.47;;;4.72;;
13051;SDS011;6592;47.484;9.726;2023-04-09T12:50:52;7.03;;;5.32;;
13051;SDS011;6592;47.484;9.726;2023-04-09T12:53:20;6.15;;;4.82;;
13051;SDS011;6592;47.484;9.726;2023-04-09T12:55:49;6.95;;;4.82;;
13051;SDS011;6592;47.484;9.726;2023-04-09T12:58:17;7.55;;;5.10;;
13051;SDS011;6592;47.484;9.726;2023-04-09T13:00:45;6.43;;;4.57;;
13051;SDS011;6592;47.484;9.726;2023-04-09T13:03:14;6.43;;;4.72;;
13051;SDS011;6592;47.484;9.726;2023-04-09T13:05:44;6.45;;;4.95;;
13051;SDS011;6592;47.484;9.726;2023-04-09T13:08:12;7.47;;;5.35;;
13051;SDS011;6592;47.484;9.726;2023-04-09T13:10:41;5.88;;;4.32;;
13051;SDS011;6592;47.484;9.726;2023-04-09T13:13:10;5.95;;;4.40;;
13051;SDS011;6592;47.484;9.726;2023-04-09T13:15:38;5.95;;;4.10;;
13051;SDS011;6592;47.484;9.726;2023-04-09T13:18:08;5.00;;;3.95;;
13051;SDS011;6592;47.484;9.726;2023-04-09T13:20:37;5.15;;;3.90;;
13051;SDS011;6592;47.484;9.726;2023-04-09T13:23:07;5.18;;;3.97;;
13051;SDS011;6592;47.484;9.726;2023-04-09T13:25:36;3.63;;;2.83;;
13051;SDS011;6592;47.484;9.726;2023-04-09T13:28:04;4.03;;;2.95;;
13051;SDS011;6592;47.484;9.726;2023-04-09T13:30:32;3.78;;;2.80;;
13051;SDS011;6592;47.484;9.726;2023-04-09T13:33:01;4.30;;;3.08;;
13051;SDS011;6592;47.484;9.726;2023-04-09T13:35:29;4.63;;;3.25;;
13051;SDS011;6592;47.484;9.726;2023-04-09T13:37:57;4.95;;;3.42;;
13051;SDS011;6592;47.484;9.726;2023-04-09T13:40:28;4.15;;;3.33;;
13051;SDS011;6592;47.484;9.726;2023-04-09T13:42:57;3.80;;;2.83;;
13051;SDS011;6592;47.484;9.726;2023-04-09T13:45:25;2.92;;;2.00;;
13051;SDS011;6592;47.484;9.726;2023-04-09T13:47:53;2.80;;;2.10;;
13051;SDS011;6592;47.484;9.726;2023-04-09T13:50:22;3.30;;;2.20;;
13051;SDS011;6592;47.484;9.726;2023-04-09T13:52:50;2.90;;;1.90;;
13051;SDS011;6592;47.484;9.726;2023-04-09T13:55:18;3.03;;;2.15;;
13051;SDS011;6592;47.484;9.726;2023-04-09T13:57:48;3.67;;;2.17;;
13051;SDS011;6592;47.484;9.726;2023-04-09T14:00:16;3.03;;;2.05;;
13051;SDS011;6592;47.484;9.726;2023-04-09T14:02:46;3.80;;;1.98;;
13051;SDS011;6592;47.484;9.726;2023-04-09T14:05:14;3.60;;;2.03;;
13051;SDS011;6592;47.484;9.726;2023-04-09T14:07:43;3.25;;;1.80;;
13051;SDS011;6592;47.484;9.726;2023-04-09T14:10:11;2.80;;;1.90;;
13051;SDS011;6592;47.484;9.726;2023-04-09T14:12:40;2.40;;;1.60;;
13051;SDS011;6592;47.484;9.726;2023-04-09T14:15:10;2.42;;;1.60;;
13051;SDS011;6592;47.484;9.726;2023-04-09T14:17:38;2.30;;;1.50;;
13051;SDS011;6592;47.484;9.726;2023-04-09T14:20:07;2.58;;;1.52;;
13051;SDS011;6592;47.484;9.726;2023-04-09T14:22:35;2.28;;;1.30;;
13051;SDS011;6592;47.484;9.726;2023-04-09T14:25:04;3.20;;;1.65;;
13051;SDS011;6592;47.484;9.726;2023-04-09T14:27:33;2.42;;;1.40;;
13051;SDS011;6592;47.484;9.726;2023-04-09T14:30:02;2.42;;;1.45;;
13051;SDS011;6592;47.484;9.726;2023-04-09T14:32:32;2.80;;;1.70;;
13051;SDS011;6592;47.484;9.726;2023-04-09T14:35:00;2.95;;;1.60;;
13051;SDS011;6592;47.484;9.726;2023-04-09T14:37:29;2.20;;;1.50;;
13051;SDS011;6592;47.484;9.726;2023-04-09T14:39:57;2.00;;;1.30;;
13051;SDS011;6592;47.484;9.726;2023-04-09T14:42:26;4.35;;;1.98;;
13051;SDS011;6592;47.484;9.726;2023-04-09T14:44:54;2.28;;;1.67;;
13051;SDS011;6592;47.484;9.726;2023-04-09T14:47:22;3.33;;;1.80;;
13051;SDS011;6592;47.484;9.726;2023-04-09T14:49:52;2.72;;;1.80;;
13051;SDS011;6592;47.484;9.726;2023-04-09T14:52:21;2.75;;;1.80;;
13051;SDS011;6592;47.484;9.726;2023-04-09T14:54:49;2.95;;;1.30;;
13051;SDS011;6592;47.484;9.726;2023-04-09T14:57:18;2.33;;;1.50;;
13051;SDS011;6592;47.484;9.726;2023-04-09T14:59:46;2.47;;;1.45;;
13051;SDS011;6592;47.484;9.726;2023-04-09T15:02:14;2.38;;;1.48;;
13051;SDS011;6592;47.484;9.726;2023-04-09T15:04:43;3.03;;;1.35;;
13051;SDS011;6592;47.484;9.726;2023-04-09T15:07:14;1.88;;;1.17;;
13051;SDS011;6592;47.484;9.726;2023-04-09T15:09:42;2.08;;;1.20;;
13051;SDS011;6592;47.484;9.726;2023-04-09T15:12:11;2.70;;;1.60;;
13051;SDS011;6592;47.484;9.726;2023-04-09T15:14:39;3.28;;;1.50;;
13051;SDS011;6592;47.484;9.726;2023-04-09T15:17:08;2.33;;;1.27;;
13051;SDS011;6592;47.484;9.726;2023-04-09T15:19:36;2.80;;;1.48;;
13051;SDS011;6592;47.484;9.726;2023-04-09T15:22:04;2.97;;;1.48;;